sensor_id;sensor_type;location;lat;lon;timestamp;temperature;humidity
4904;DHT22;2467;48.142;11.616;2023-03-29T00:00:26;6.10;90.70
4904;DHT22;2467;48.142;11.616;2023-03-29T00:00:58;6.20;90.80
4904;DHT22;2467;48.142;11.616;2023-03-29T00:01:31;6.20;90.80
4904;DHT22;2467;48.142;11.616;2023-03-29T00:02:07;6.20;91.00
4904;DHT22;2467;48.142;11.616;2023-03-29T00:02:40;6.20;91.10
4904;DHT22;2467;48.142;11.616;2023-03-29T00:03:13;6.10;91.10
4904;DHT22;2467;48.142;11.616;2023-03-29T00:03:47;6.10;91.00
4904;DHT22;2467;48.142;11.616;2023-03-29T00:04:20;6.10;91.00
4904;DHT22;2467;48.142;11.616;2023-03-29T00:04:53;6.00;90.90
4904;DHT22;2467;48.142;11.616;2023-03-29T00:05:25;6.00;90.90
4904;DHT22;2467;48.142;11.616;2023-03-29T00:06:00;6.00;90.90
4904;DHT22;2467;48.142;11.616;2023-03-29T00:06:36;6.00;90.90
4904;DHT22;2467;48.142;11.616;2023-03-29T00:07:08;6.00;90.90
4904;DHT22;2467;48.142;11.616;2023-03-29T00:07:40;5.90;90.90
4904;DHT22;2467;48.142;11.616;2023-03-29T00:08:13;6.00;91.10
4904;DHT22;2467;48.142;11.616;2023-03-29T00:08:45;6.00;91.20
4904;DHT22;2467;48.142;11.616;2023-03-29T00:09:17;6.00;91.20
4904;DHT22;2467;48.142;11.616;2023-03-29T00:09:50;6.00;91.20
4904;DHT22;2467;48.142;11.616;2023-03-29T00:10:22;6.00;91.20
4904;DHT22;2467;48.142;11.616;2023-03-29T00:10:54;6.00;91.20
4904;DHT22;2467;48.142;11.616;2023-03-29T00:11:29;6.00;91.20
4904;DHT22;2467;48.142;11.616;2023-03-29T00:12:02;6.00;91.20
4904;DHT22;2467;48.142;11.616;2023-03-29T00:12:35;6.00;91.20
4904;DHT22;2467;48.142;11.616;2023-03-29T00:13:08;6.00;91.10
4904;DHT22;2467;48.142;11.616;2023-03-29T00:13:39;5.90;91.10
4904;DHT22;2467;48.142;11.616;2023-03-29T00:14:12;5.90;91.20
4904;DHT22;2467;48.142;11.616;2023-03-29T00:14:44;5.90;91.20
4904;DHT22;2467;48.142;11.616;2023-03-29T00:15:17;5.90;91.30
4904;DHT22;2467;48.142;11.616;2023-03-29T00:15:49;5.90;91.50
4904;DHT22;2467;48.142;11.616;2023-03-29T00:16:21;5.90;91.60
4904;DHT22;2467;48.142;11.616;2023-03-29T00:16:53;5.90;91.70
4904;DHT22;2467;48.142;11.616;2023-03-29T00:17:27;5.90;91.80
4904;DHT22;2467;48.142;11.616;2023-03-29T00:17:59;5.80;91.90
4904;DHT22;2467;48.142;11.616;2023-03-29T00:18:30;5.80;92.10
4904;DHT22;2467;48.142;11.616;2023-03-29T00:19:05;5.80;92.20
4904;DHT22;2467;48.142;11.616;2023-03-29T00:19:36;5.80;92.40
4904;DHT22;2467;48.142;11.616;2023-03-29T00:20:09;5.80;92.50
4904;DHT22;2467;48.142;11.616;2023-03-29T00:20:42;5.80;92.50
4904;DHT22;2467;48.142;11.616;2023-03-29T00:21:14;5.80;92.50
4904;DHT22;2467;48.142;11.616;2023-03-29T00:21:46;5.80;92.60
4904;DHT22;2467;48.142;11.616;2023-03-29T00:22:19;5.80;92.70
4904;DHT22;2467;48.142;11.616;2023-03-29T00:22:51;5.70;92.70
4904;DHT22;2467;48.142;11.616;2023-03-29T00:23:24;5.70;92.80
4904;DHT22;2467;48.142;11.616;2023-03-29T00:23:57;5.70;92.90
4904;DHT22;2467;48.142;11.616;2023-03-29T00:24:29;5.70;93.10
4904;DHT22;2467;48.142;11.616;2023-03-29T00:25:01;5.70;93.30
4904;DHT22;2467;48.142;11.616;2023-03-29T00:25:34;5.60;93.50
4904;DHT22;2467;48.142;11.616;2023-03-29T00:26:06;5.60;94.00
4904;DHT22;2467;48.142;11.616;2023-03-29T00:26:39;5.60;94.60
4904;DHT22;2467;48.142;11.616;2023-03-29T00:27:12;5.60;95.10
4904;DHT22;2467;48.142;11.616;2023-03-29T00:27:43;5.50;95.70
4904;DHT22;2467;48.142;11.616;2023-03-29T00:28:15;5.50;96.10
4904;DHT22;2467;48.142;11.616;2023-03-29T00:28:48;5.50;96.60
4904;DHT22;2467;48.142;11.616;2023-03-29T00:29:20;5.50;96.80
4904;DHT22;2467;48.142;11.616;2023-03-29T00:29:52;5.50;97.00
4904;DHT22;2467;48.142;11.616;2023-03-29T00:30:25;5.60;97.50
4904;DHT22;2467;48.142;11.616;2023-03-29T00:31:03;5.50;98.40
4904;DHT22;2467;48.142;11.616;2023-03-29T00:31:36;5.50;99.70
4904;DHT22;2467;48.142;11.616;2023-03-29T00:32:09;5.50;99.90
4904;DHT22;2467;48.142;11.616;2023-03-29T00:32:41;5.50;99.90
4904;DHT22;2467;48.142;11.616;2023-03-29T00:33:13;5.60;99.90
4904;DHT22;2467;48.142;11.616;2023-03-29T00:33:46;5.60;99.90
4904;DHT22;2467;48.142;11.616;2023-03-29T00:34:20;5.60;99.90
4904;DHT22;2467;48.142;11.616;2023-03-29T00:34:52;5.60;99.90
4904;DHT22;2467;48.142;11.616;2023-03-29T00:35:25;5.60;99.90
4904;DHT22;2467;48.142;11.616;2023-03-29T00:35:57;5.60;99.90
4904;DHT22;2467;48.142;11.616;2023-03-29T00:36:29;5.60;99.90
4904;DHT22;2467;48.142;11.616;2023-03-29T00:37:02;5.60;99.90
4904;DHT22;2467;48.142;11.616;2023-03-29T00:37:34;5.50;99.90
4904;DHT22;2467;48.142;11.616;2023-03-29T00:38:06;5.50;99.90
4904;DHT22;2467;48.142;11.616;2023-03-29T00:38:39;5.50;99.90
4904;DHT22;2467;48.142;11.616;2023-03-29T00:39:11;5.50;99.90
4904;DHT22;2467;48.142;11.616;2023-03-29T00:39:43;5.60;99.90
4904;DHT22;2467;48.142;11.616;2023-03-29T00:40:17;5.60;99.90
4904;DHT22;2467;48.142;11.616;2023-03-29T00:40:49;5.60;99.90
4904;DHT22;2467;48.142;11.616;2023-03-29T00:41:21;5.60;99.90
4904;DHT22;2467;48.142;11.616;2023-03-29T00:41:54;5.60;99.90
4904;DHT22;2467;48.142;11.616;2023-03-29T00:42:26;5.70;99.90
4904;DHT22;2467;48.142;11.616;2023-03-29T00:42:57;5.70;99.90
4904;DHT22;2467;48.142;11.616;2023-03-29T00:44:56;5.70;99.90
4904;DHT22;2467;48.142;11.616;2023-03-29T00:45:29;5.70;99.90
4904;DHT22;2467;48.142;11.616;2023-03-29T00:46:01;5.70;99.90
4904;DHT22;2467;48.142;11.616;2023-03-29T00:46:34;5.80;99.90
4904;DHT22;2467;48.142;11.616;2023-03-29T00:47:06;5.80;99.90
4904;DHT22;2467;48.142;11.616;2023-03-29T00:47:40;5.80;99.90
4904;DHT22;2467;48.142;11.616;2023-03-29T00:48:16;5.80;99.90
4904;DHT22;2467;48.142;11.616;2023-03-29T00:48:52;5.80;99.90
4904;DHT22;2467;48.142;11.616;2023-03-29T00:49:26;5.80;99.90
4904;DHT22;2467;48.142;11.616;2023-03-29T00:50:02;5.80;99.90
4904;DHT22;2467;48.142;11.616;2023-03-29T00:50:38;5.80;99.90
4904;DHT22;2467;48.142;11.616;2023-03-29T00:51:12;5.90;99.90
4904;DHT22;2467;48.142;11.616;2023-03-29T00:51:47;5.90;99.90
4904;DHT22;2467;48.142;11.616;2023-03-29T00:52:19;5.90;99.90
4904;DHT22;2467;48.142;11.616;2023-03-29T00:52:55;5.90;99.90
4904;DHT22;2467;48.142;11.616;2023-03-29T00:53:33;5.90;99.90
4904;DHT22;2467;48.142;11.616;2023-03-29T00:54:10;5.90;99.90
4904;DHT22;2467;48.142;11.616;2023-03-29T00:54:46;5.90;99.90
4904;DHT22;2467;48.142;11.616;2023-03-29T00:55:22;5.90;99.90
4904;DHT22;2467;48.142;11.616;2023-03-29T00:55:58;5.90;99.90
4904;DHT22;2467;48.142;11.616;2023-03-29T00:56:35;5.90;99.90
4904;DHT22;2467;48.142;11.616;2023-03-29T00:57:09;5.90;99.90
4904;DHT22;2467;48.142;11.616;2023-03-29T00:57:43;5.90;99.90
4904;DHT22;2467;48.142;11.616;2023-03-29T00:58:20;5.90;99.90
4904;DHT22;2467;48.142;11.616;2023-03-29T00:58:57;5.90;99.90
4904;DHT22;2467;48.142;11.616;2023-03-29T00:59:33;5.90;99.90
4904;DHT22;2467;48.142;11.616;2023-03-29T01:00:07;5.80;99.90
4904;DHT22;2467;48.142;11.616;2023-03-29T01:00:45;5.80;99.90
4904;DHT22;2467;48.142;11.616;2023-03-29T01:01:23;5.70;99.90
4904;DHT22;2467;48.142;11.616;2023-03-29T01:02:00;5.70;99.90
4904;DHT22;2467;48.142;11.616;2023-03-29T01:02:33;5.70;99.90
4904;DHT22;2467;48.142;11.616;2023-03-29T01:03:07;5.70;99.90
4904;DHT22;2467;48.142;11.616;2023-03-29T01:03:47;5.70;99.90
4904;DHT22;2467;48.142;11.616;2023-03-29T01:04:26;5.70;99.90
4904;DHT22;2467;48.142;11.616;2023-03-29T01:05:04;5.70;99.90
4904;DHT22;2467;48.142;11.616;2023-03-29T01:05:42;5.70;99.90
4904;DHT22;2467;48.142;11.616;2023-03-29T01:06:17;5.70;99.90
4904;DHT22;2467;48.142;11.616;2023-03-29T01:06:54;5.70;99.90
4904;DHT22;2467;48.142;11.616;2023-03-29T01:07:31;5.70;99.90
4904;DHT22;2467;48.142;11.616;2023-03-29T01:08:08;5.70;99.90
4904;DHT22;2467;48.142;11.616;2023-03-29T01:08:46;5.70;99.90
4904;DHT22;2467;48.142;11.616;2023-03-29T01:09:20;5.70;99.90
4904;DHT22;2467;48.142;11.616;2023-03-29T01:09:58;5.60;99.90
4904;DHT22;2467;48.142;11.616;2023-03-29T01:10:35;5.60;99.90
4904;DHT22;2467;48.142;11.616;2023-03-29T01:11:13;5.50;99.90
4904;DHT22;2467;48.142;11.616;2023-03-29T01:11:51;5.50;99.90
4904;DHT22;2467;48.142;11.616;2023-03-29T01:12:28;5.50;99.90
4904;DHT22;2467;48.142;11.616;2023-03-29T01:13:07;5.50;99.90
4904;DHT22;2467;48.142;11.616;2023-03-29T01:13:43;5.50;99.90
4904;DHT22;2467;48.142;11.616;2023-03-29T01:14:19;5.40;99.90
4904;DHT22;2467;48.142;11.616;2023-03-29T01:14:56;5.40;99.90
4904;DHT22;2467;48.142;11.616;2023-03-29T01:15:30;5.30;99.90
4904;DHT22;2467;48.142;11.616;2023-03-29T01:16:03;5.30;99.90
4904;DHT22;2467;48.142;11.616;2023-03-29T01:16:36;5.30;99.90
4904;DHT22;2467;48.142;11.616;2023-03-29T01:17:10;5.20;99.90
4904;DHT22;2467;48.142;11.616;2023-03-29T01:17:43;5.20;99.90
4904;DHT22;2467;48.142;11.616;2023-03-29T01:18:20;5.20;99.90
4904;DHT22;2467;48.142;11.616;2023-03-29T01:18:53;5.20;99.90
4904;DHT22;2467;48.142;11.616;2023-03-29T01:19:34;5.10;99.90
4904;DHT22;2467;48.142;11.616;2023-03-29T01:20:14;5.20;99.90
4904;DHT22;2467;48.142;11.616;2023-03-29T01:21:06;5.20;99.90
4904;DHT22;2467;48.142;11.616;2023-03-29T01:21:43;5.20;99.90
4904;DHT22;2467;48.142;11.616;2023-03-29T01:22:28;5.20;99.90
4904;DHT22;2467;48.142;11.616;2023-03-29T01:23:19;5.20;99.90
4904;DHT22;2467;48.142;11.616;2023-03-29T01:24:28;5.20;99.90
4904;DHT22;2467;48.142;11.616;2023-03-29T01:25:09;5.30;99.90
4904;DHT22;2467;48.142;11.616;2023-03-29T01:25:50;5.20;99.90
4904;DHT22;2467;48.142;11.616;2023-03-29T01:26:32;5.20;99.90
4904;DHT22;2467;48.142;11.616;2023-03-29T01:27:13;5.20;99.90
4904;DHT22;2467;48.142;11.616;2023-03-29T01:27:50;5.30;99.90
4904;DHT22;2467;48.142;11.616;2023-03-29T01:28:27;5.30;99.90
4904;DHT22;2467;48.142;11.616;2023-03-29T01:29:05;5.30;99.90
4904;DHT22;2467;48.142;11.616;2023-03-29T01:29:41;5.40;99.90
4904;DHT22;2467;48.142;11.616;2023-03-29T01:30:20;5.40;99.90
4904;DHT22;2467;48.142;11.616;2023-03-29T01:30:59;5.40;99.90
4904;DHT22;2467;48.142;11.616;2023-03-29T01:31:37;5.30;99.90
4904;DHT22;2467;48.142;11.616;2023-03-29T01:32:12;5.30;99.90
4904;DHT22;2467;48.142;11.616;2023-03-29T01:32:49;5.30;99.90
4904;DHT22;2467;48.142;11.616;2023-03-29T01:33:25;5.30;99.90
4904;DHT22;2467;48.142;11.616;2023-03-29T01:34:02;5.30;99.90
4904;DHT22;2467;48.142;11.616;2023-03-29T01:34:41;5.30;99.90
4904;DHT22;2467;48.142;11.616;2023-03-29T01:35:18;5.30;99.90
4904;DHT22;2467;48.142;11.616;2023-03-29T01:35:56;5.30;99.90
4904;DHT22;2467;48.142;11.616;2023-03-29T01:36:36;5.30;99.90
4904;DHT22;2467;48.142;11.616;2023-03-29T01:37:16;5.40;99.90
4904;DHT22;2467;48.142;11.616;2023-03-29T01:37:53;5.40;99.90
4904;DHT22;2467;48.142;11.616;2023-03-29T01:38:30;5.40;99.90
4904;DHT22;2467;48.142;11.616;2023-03-29T01:39:06;5.40;99.90
4904;DHT22;2467;48.142;11.616;2023-03-29T01:39:38;5.40;99.90
4904;DHT22;2467;48.142;11.616;2023-03-29T01:40:11;5.40;99.90
4904;DHT22;2467;48.142;11.616;2023-03-29T01:40:44;5.40;99.90
4904;DHT22;2467;48.142;11.616;2023-03-29T01:41:16;5.40;99.90
4904;DHT22;2467;48.142;11.616;2023-03-29T01:41:57;5.40;99.90
4904;DHT22;2467;48.142;11.616;2023-03-29T01:42:41;5.40;99.90
4904;DHT22;2467;48.142;11.616;2023-03-29T01:43:22;5.30;99.90
4904;DHT22;2467;48.142;11.616;2023-03-29T01:44:00;5.30;99.90
4904;DHT22;2467;48.142;11.616;2023-03-29T01:44:38;5.30;99.90
4904;DHT22;2467;48.142;11.616;2023-03-29T01:45:19;5.30;99.90
4904;DHT22;2467;48.142;11.616;2023-03-29T01:46:00;5.30;99.90
4904;DHT22;2467;48.142;11.616;2023-03-29T01:46:38;5.30;99.90
4904;DHT22;2467;48.142;11.616;2023-03-29T01:47:19;5.40;99.90
4904;DHT22;2467;48.142;11.616;2023-03-29T01:47:59;5.40;99.90
4904;DHT22;2467;48.142;11.616;2023-03-29T01:48:36;5.30;99.90
4904;DHT22;2467;48.142;11.616;2023-03-29T01:49:17;5.40;99.90
4904;DHT22;2467;48.142;11.616;2023-03-29T01:50:00;5.30;99.90
4904;DHT22;2467;48.142;11.616;2023-03-29T01:50:38;5.40;99.90
4904;DHT22;2467;48.142;11.616;2023-03-29T01:51:16;5.40;99.90
4904;DHT22;2467;48.142;11.616;2023-03-29T01:51:55;5.40;99.90
4904;DHT22;2467;48.142;11.616;2023-03-29T01:52:33;5.40;99.90
4904;DHT22;2467;48.142;11.616;2023-03-29T01:53:10;5.40;99.90
4904;DHT22;2467;48.142;11.616;2023-03-29T01:53:51;5.50;99.90
4904;DHT22;2467;48.142;11.616;2023-03-29T01:54:29;5.50;99.90
4904;DHT22;2467;48.142;11.616;2023-03-29T01:55:06;5.50;99.90
4904;DHT22;2467;48.142;11.616;2023-03-29T01:55:44;5.50;99.90
4904;DHT22;2467;48.142;11.616;2023-03-29T01:56:20;5.60;99.90
4904;DHT22;2467;48.142;11.616;2023-03-29T01:56:54;5.60;99.90
4904;DHT22;2467;48.142;11.616;2023-03-29T01:57:29;5.60;99.90
4904;DHT22;2467;48.142;11.616;2023-03-29T01:58:05;5.70;99.90
4904;DHT22;2467;48.142;11.616;2023-03-29T01:58:42;5.70;99.90
4904;DHT22;2467;48.142;11.616;2023-03-29T01:59:18;5.70;99.90
4904;DHT22;2467;48.142;11.616;2023-03-29T01:59:54;5.70;99.90
4904;DHT22;2467;48.142;11.616;2023-03-29T02:00:28;5.70;99.90
4904;DHT22;2467;48.142;11.616;2023-03-29T02:01:03;5.70;99.90
4904;DHT22;2467;48.142;11.616;2023-03-29T02:01:39;5.70;99.90
4904;DHT22;2467;48.142;11.616;2023-03-29T02:02:13;5.70;99.90
4904;DHT22;2467;48.142;11.616;2023-03-29T02:02:47;5.80;99.90
4904;DHT22;2467;48.142;11.616;2023-03-29T02:03:23;5.80;99.90
4904;DHT22;2467;48.142;11.616;2023-03-29T02:04:00;5.80;99.90
4904;DHT22;2467;48.142;11.616;2023-03-29T02:04:37;5.90;99.90
4904;DHT22;2467;48.142;11.616;2023-03-29T02:05:11;5.90;99.90
4904;DHT22;2467;48.142;11.616;2023-03-29T02:05:44;5.90;99.90
4904;DHT22;2467;48.142;11.616;2023-03-29T02:06:21;5.90;99.90
4904;DHT22;2467;48.142;11.616;2023-03-29T02:06:54;5.90;99.90
4904;DHT22;2467;48.142;11.616;2023-03-29T02:07:29;5.90;99.90
4904;DHT22;2467;48.142;11.616;2023-03-29T02:08:04;5.90;99.90
4904;DHT22;2467;48.142;11.616;2023-03-29T02:08:38;5.90;99.90
4904;DHT22;2467;48.142;11.616;2023-03-29T02:09:11;5.90;99.90
4904;DHT22;2467;48.142;11.616;2023-03-29T02:09:45;6.00;99.90
4904;DHT22;2467;48.142;11.616;2023-03-29T02:10:19;6.00;99.90
4904;DHT22;2467;48.142;11.616;2023-03-29T02:10:52;6.00;99.90
4904;DHT22;2467;48.142;11.616;2023-03-29T02:11:25;6.00;99.90
4904;DHT22;2467;48.142;11.616;2023-03-29T02:12:00;6.10;99.90
4904;DHT22;2467;48.142;11.616;2023-03-29T02:12:33;6.10;99.90
4904;DHT22;2467;48.142;11.616;2023-03-29T02:13:06;6.10;99.90
4904;DHT22;2467;48.142;11.616;2023-03-29T02:13:39;6.10;99.90
4904;DHT22;2467;48.142;11.616;2023-03-29T02:14:11;6.10;99.90
4904;DHT22;2467;48.142;11.616;2023-03-29T02:14:44;6.20;99.90
4904;DHT22;2467;48.142;11.616;2023-03-29T02:15:18;6.20;99.90
4904;DHT22;2467;48.142;11.616;2023-03-29T02:15:50;6.20;99.90
4904;DHT22;2467;48.142;11.616;2023-03-29T02:16:22;6.20;99.90
4904;DHT22;2467;48.142;11.616;2023-03-29T02:16:55;6.20;99.90
4904;DHT22;2467;48.142;11.616;2023-03-29T02:17:27;6.20;99.90
4904;DHT22;2467;48.142;11.616;2023-03-29T02:17:59;6.20;99.90
4904;DHT22;2467;48.142;11.616;2023-03-29T02:18:35;6.20;99.90
4904;DHT22;2467;48.142;11.616;2023-03-29T02:19:07;6.10;99.90
4904;DHT22;2467;48.142;11.616;2023-03-29T02:19:39;6.20;99.90
4904;DHT22;2467;48.142;11.616;2023-03-29T02:20:16;6.20;99.90
4904;DHT22;2467;48.142;11.616;2023-03-29T02:20:52;6.20;99.90
4904;DHT22;2467;48.142;11.616;2023-03-29T02:21:29;6.20;99.90
4904;DHT22;2467;48.142;11.616;2023-03-29T02:22:06;6.20;99.90
4904;DHT22;2467;48.142;11.616;2023-03-29T02:22:46;6.20;99.90
4904;DHT22;2467;48.142;11.616;2023-03-29T02:23:23;6.20;99.90
4904;DHT22;2467;48.142;11.616;2023-03-29T02:24:00;6.20;99.90
4904;DHT22;2467;48.142;11.616;2023-03-29T02:24:36;6.20;99.90
4904;DHT22;2467;48.142;11.616;2023-03-29T02:25:09;6.20;99.90
4904;DHT22;2467;48.142;11.616;2023-03-29T02:25:43;6.20;99.90
4904;DHT22;2467;48.142;11.616;2023-03-29T02:26:16;6.20;99.90
4904;DHT22;2467;48.142;11.616;2023-03-29T02:26:49;6.30;99.90
4904;DHT22;2467;48.142;11.616;2023-03-29T02:27:21;6.30;99.90
4904;DHT22;2467;48.142;11.616;2023-03-29T02:27:53;6.30;99.90
4904;DHT22;2467;48.142;11.616;2023-03-29T02:28:28;6.40;99.90
4904;DHT22;2467;48.142;11.616;2023-03-29T02:29:02;6.40;99.90
4904;DHT22;2467;48.142;11.616;2023-03-29T02:29:34;6.40;99.90
4904;DHT22;2467;48.142;11.616;2023-03-29T02:30:08;6.40;99.90
4904;DHT22;2467;48.142;11.616;2023-03-29T02:30:46;6.40;99.90
4904;DHT22;2467;48.142;11.616;2023-03-29T02:31:27;6.40;99.90
4904;DHT22;2467;48.142;11.616;2023-03-29T02:32:06;6.40;99.90
4904;DHT22;2467;48.142;11.616;2023-03-29T02:32:46;6.40;99.90
4904;DHT22;2467;48.142;11.616;2023-03-29T02:33:25;6.50;99.90
4904;DHT22;2467;48.142;11.616;2023-03-29T02:34:02;6.50;99.90
4904;DHT22;2467;48.142;11.616;2023-03-29T02:34:41;6.50;99.90
4904;DHT22;2467;48.142;11.616;2023-03-29T02:35:21;6.50;99.90
4904;DHT22;2467;48.142;11.616;2023-03-29T02:35:59;6.50;99.90
4904;DHT22;2467;48.142;11.616;2023-03-29T02:36:36;6.60;99.90
4904;DHT22;2467;48.142;11.616;2023-03-29T02:37:13;6.60;99.90
4904;DHT22;2467;48.142;11.616;2023-03-29T02:37:50;6.60;99.90
4904;DHT22;2467;48.142;11.616;2023-03-29T02:38:25;6.50;99.90
4904;DHT22;2467;48.142;11.616;2023-03-29T02:39:00;6.50;99.90
4904;DHT22;2467;48.142;11.616;2023-03-29T02:39:35;6.50;99.90
4904;DHT22;2467;48.142;11.616;2023-03-29T02:40:11;6.50;99.90
4904;DHT22;2467;48.142;11.616;2023-03-29T02:40:45;6.50;99.90
4904;DHT22;2467;48.142;11.616;2023-03-29T02:41:17;6.50;99.90
4904;DHT22;2467;48.142;11.616;2023-03-29T02:41:52;6.50;99.90
4904;DHT22;2467;48.142;11.616;2023-03-29T02:42:25;6.50;99.90
4904;DHT22;2467;48.142;11.616;2023-03-29T02:43:00;6.50;99.90
4904;DHT22;2467;48.142;11.616;2023-03-29T02:43:34;6.50;99.90
4904;DHT22;2467;48.142;11.616;2023-03-29T02:44:10;6.50;99.90
4904;DHT22;2467;48.142;11.616;2023-03-29T02:44:45;6.50;99.90
4904;DHT22;2467;48.142;11.616;2023-03-29T02:45:18;6.50;99.90
4904;DHT22;2467;48.142;11.616;2023-03-29T02:45:51;6.50;99.90
4904;DHT22;2467;48.142;11.616;2023-03-29T02:46:23;6.50;99.90
4904;DHT22;2467;48.142;11.616;2023-03-29T02:46:58;6.50;99.90
4904;DHT22;2467;48.142;11.616;2023-03-29T02:47:35;6.50;99.90
4904;DHT22;2467;48.142;11.616;2023-03-29T02:48:11;6.50;99.90
4904;DHT22;2467;48.142;11.616;2023-03-29T02:48:47;6.50;99.90
4904;DHT22;2467;48.142;11.616;2023-03-29T02:49:21;6.50;99.90
4904;DHT22;2467;48.142;11.616;2023-03-29T02:49:53;6.50;99.90
4904;DHT22;2467;48.142;11.616;2023-03-29T02:50:28;6.50;99.90
4904;DHT22;2467;48.142;11.616;2023-03-29T02:51:08;6.40;99.90
4904;DHT22;2467;48.142;11.616;2023-03-29T02:51:42;6.40;99.90
4904;DHT22;2467;48.142;11.616;2023-03-29T02:52:20;6.40;99.90
4904;DHT22;2467;48.142;11.616;2023-03-29T02:52:56;6.40;99.90
4904;DHT22;2467;48.142;11.616;2023-03-29T02:53:33;6.30;99.90
4904;DHT22;2467;48.142;11.616;2023-03-29T02:54:13;6.30;99.90
4904;DHT22;2467;48.142;11.616;2023-03-29T02:54:47;6.30;99.90
4904;DHT22;2467;48.142;11.616;2023-03-29T02:55:22;6.30;99.90
4904;DHT22;2467;48.142;11.616;2023-03-29T02:55:56;6.30;99.90
4904;DHT22;2467;48.142;11.616;2023-03-29T02:56:40;6.30;99.90
4904;DHT22;2467;48.142;11.616;2023-03-29T02:57:12;6.30;99.90
4904;DHT22;2467;48.142;11.616;2023-03-29T02:57:45;6.30;99.90
4904;DHT22;2467;48.142;11.616;2023-03-29T02:58:16;6.40;99.90
4904;DHT22;2467;48.142;11.616;2023-03-29T02:58:48;6.30;99.90
4904;DHT22;2467;48.142;11.616;2023-03-29T02:59:22;6.40;99.90
4904;DHT22;2467;48.142;11.616;2023-03-29T02:59:56;6.40;99.90
4904;DHT22;2467;48.142;11.616;2023-03-29T03:00:28;6.40;99.90
4904;DHT22;2467;48.142;11.616;2023-03-29T03:01:02;6.40;99.90
4904;DHT22;2467;48.142;11.616;2023-03-29T03:01:36;6.40;99.90
4904;DHT22;2467;48.142;11.616;2023-03-29T03:02:08;6.40;99.90
4904;DHT22;2467;48.142;11.616;2023-03-29T03:02:42;6.40;99.90
4904;DHT22;2467;48.142;11.616;2023-03-29T03:03:15;6.40;99.90
4904;DHT22;2467;48.142;11.616;2023-03-29T03:03:48;6.40;99.90
4904;DHT22;2467;48.142;11.616;2023-03-29T03:04:21;6.40;99.90
4904;DHT22;2467;48.142;11.616;2023-03-29T03:04:53;6.40;99.90
4904;DHT22;2467;48.142;11.616;2023-03-29T03:05:26;6.40;99.90
4904;DHT22;2467;48.142;11.616;2023-03-29T03:05:58;6.40;99.90
4904;DHT22;2467;48.142;11.616;2023-03-29T03:06:32;6.40;99.90
4904;DHT22;2467;48.142;11.616;2023-03-29T03:07:05;6.40;99.90
4904;DHT22;2467;48.142;11.616;2023-03-29T03:07:37;6.40;99.90
4904;DHT22;2467;48.142;11.616;2023-03-29T03:08:11;6.40;99.90
4904;DHT22;2467;48.142;11.616;2023-03-29T03:08:44;6.50;99.90
4904;DHT22;2467;48.142;11.616;2023-03-29T03:09:16;6.50;99.90
4904;DHT22;2467;48.142;11.616;2023-03-29T03:09:48;6.50;99.90
4904;DHT22;2467;48.142;11.616;2023-03-29T03:10:22;6.50;99.90
4904;DHT22;2467;48.142;11.616;2023-03-29T03:10:54;6.50;99.90
4904;DHT22;2467;48.142;11.616;2023-03-29T03:11:27;6.50;99.90
4904;DHT22;2467;48.142;11.616;2023-03-29T03:11:59;6.50;99.90
4904;DHT22;2467;48.142;11.616;2023-03-29T03:12:30;6.60;99.90
4904;DHT22;2467;48.142;11.616;2023-03-29T03:13:03;6.50;99.90
4904;DHT22;2467;48.142;11.616;2023-03-29T03:13:35;6.50;99.90
4904;DHT22;2467;48.142;11.616;2023-03-29T03:14:07;6.40;99.90
4904;DHT22;2467;48.142;11.616;2023-03-29T03:14:42;6.50;99.90
4904;DHT22;2467;48.142;11.616;2023-03-29T03:15:13;6.40;99.90
4904;DHT22;2467;48.142;11.616;2023-03-29T03:15:46;6.40;99.90
4904;DHT22;2467;48.142;11.616;2023-03-29T03:16:19;6.40;99.90
4904;DHT22;2467;48.142;11.616;2023-03-29T03:16:52;6.40;99.90
4904;DHT22;2467;48.142;11.616;2023-03-29T03:17:25;6.50;99.90
4904;DHT22;2467;48.142;11.616;2023-03-29T03:17:57;6.40;99.90
4904;DHT22;2467;48.142;11.616;2023-03-29T03:18:29;6.40;99.90
4904;DHT22;2467;48.142;11.616;2023-03-29T03:19:02;6.40;99.90
4904;DHT22;2467;48.142;11.616;2023-03-29T03:19:35;6.40;99.90
4904;DHT22;2467;48.142;11.616;2023-03-29T03:20:08;6.40;99.90
4904;DHT22;2467;48.142;11.616;2023-03-29T03:20:43;6.40;99.90
4904;DHT22;2467;48.142;11.616;2023-03-29T03:21:25;6.30;99.90
4904;DHT22;2467;48.142;11.616;2023-03-29T03:21:58;6.20;99.90
4904;DHT22;2467;48.142;11.616;2023-03-29T03:22:30;6.20;99.90
4904;DHT22;2467;48.142;11.616;2023-03-29T03:23:03;6.20;99.90
4904;DHT22;2467;48.142;11.616;2023-03-29T03:23:35;6.20;99.90
4904;DHT22;2467;48.142;11.616;2023-03-29T03:24:07;6.20;99.90
4904;DHT22;2467;48.142;11.616;2023-03-29T03:24:40;6.20;99.90
4904;DHT22;2467;48.142;11.616;2023-03-29T03:25:12;6.20;99.90
4904;DHT22;2467;48.142;11.616;2023-03-29T03:25:44;6.20;99.90
4904;DHT22;2467;48.142;11.616;2023-03-29T03:26:19;6.10;99.90
4904;DHT22;2467;48.142;11.616;2023-03-29T03:26:51;6.20;99.90
4904;DHT22;2467;48.142;11.616;2023-03-29T03:27:23;6.20;99.90
4904;DHT22;2467;48.142;11.616;2023-03-29T03:27:56;6.20;99.90
4904;DHT22;2467;48.142;11.616;2023-03-29T03:28:29;6.10;99.90
4904;DHT22;2467;48.142;11.616;2023-03-29T03:29:03;6.10;99.90
4904;DHT22;2467;48.142;11.616;2023-03-29T03:29:34;6.10;99.90
4904;DHT22;2467;48.142;11.616;2023-03-29T03:30:11;6.20;99.90
4904;DHT22;2467;48.142;11.616;2023-03-29T03:30:44;6.10;99.90
4904;DHT22;2467;48.142;11.616;2023-03-29T03:31:16;6.10;99.90
4904;DHT22;2467;48.142;11.616;2023-03-29T03:31:48;6.10;99.90
4904;DHT22;2467;48.142;11.616;2023-03-29T03:32:24;6.00;99.90
4904;DHT22;2467;48.142;11.616;2023-03-29T03:32:56;6.10;99.90
4904;DHT22;2467;48.142;11.616;2023-03-29T03:33:28;6.00;99.90
4904;DHT22;2467;48.142;11.616;2023-03-29T03:34:01;6.10;99.90
4904;DHT22;2467;48.142;11.616;2023-03-29T03:34:33;6.10;99.90
4904;DHT22;2467;48.142;11.616;2023-03-29T03:35:05;6.10;99.90
4904;DHT22;2467;48.142;11.616;2023-03-29T03:35:38;6.10;99.90
4904;DHT22;2467;48.142;11.616;2023-03-29T03:36:12;6.10;99.90
4904;DHT22;2467;48.142;11.616;2023-03-29T03:36:44;6.10;99.90
4904;DHT22;2467;48.142;11.616;2023-03-29T03:37:17;6.00;99.90
4904;DHT22;2467;48.142;11.616;2023-03-29T03:37:50;6.10;99.90
4904;DHT22;2467;48.142;11.616;2023-03-29T03:38:22;6.00;99.90
4904;DHT22;2467;48.142;11.616;2023-03-29T03:38:54;5.80;99.90
4904;DHT22;2467;48.142;11.616;2023-03-29T03:39:27;6.00;99.90
4904;DHT22;2467;48.142;11.616;2023-03-29T03:39:59;6.00;99.90
4904;DHT22;2467;48.142;11.616;2023-03-29T03:40:31;6.00;99.90
4904;DHT22;2467;48.142;11.616;2023-03-29T03:41:05;6.00;99.90
4904;DHT22;2467;48.142;11.616;2023-03-29T03:41:37;6.10;99.90
4904;DHT22;2467;48.142;11.616;2023-03-29T03:42:09;6.10;99.90
4904;DHT22;2467;48.142;11.616;2023-03-29T03:42:42;6.10;99.90
4904;DHT22;2467;48.142;11.616;2023-03-29T03:43:14;6.10;99.90
4904;DHT22;2467;48.142;11.616;2023-03-29T03:43:46;6.10;99.90
4904;DHT22;2467;48.142;11.616;2023-03-29T03:44:20;6.10;99.90
4904;DHT22;2467;48.142;11.616;2023-03-29T03:44:51;6.10;99.90
4904;DHT22;2467;48.142;11.616;2023-03-29T03:45:25;6.10;99.90
4904;DHT22;2467;48.142;11.616;2023-03-29T03:45:58;6.10;99.90
4904;DHT22;2467;48.142;11.616;2023-03-29T03:46:29;6.20;99.90
4904;DHT22;2467;48.142;11.616;2023-03-29T03:47:03;6.20;99.90
4904;DHT22;2467;48.142;11.616;2023-03-29T03:47:37;6.20;99.90
4904;DHT22;2467;48.142;11.616;2023-03-29T03:48:09;6.20;99.90
4904;DHT22;2467;48.142;11.616;2023-03-29T03:48:41;6.10;99.90